sensor_id;sensor_type;location;lat;lon;timestamp;P1;durP1;ratioP1;P2;durP2;ratioP2
45944;SDS011;31655;48.972;10.686;2022-07-29T00:01:55;6.65;;;3.65;;
45944;SDS011;31655;48.972;10.686;2022-07-29T00:04:22;7.63;;;3.42;;
45944;SDS011;31655;48.972;10.686;2022-07-29T00:06:48;9.95;;;3.55;;
45944;SDS011;31655;48.972;10.686;2022-07-29T00:09:21;4.47;;;3.58;;
45944;SDS011;31655;48.972;10.686;2022-07-29T00:11:50;8.32;;;3.72;;
45944;SDS011;31655;48.972;10.686;2022-07-29T00:14:17;4.15;;;3.28;;
45944;SDS011;31655;48.972;10.686;2022-07-29T00:16:47;6.07;;;3.40;;
45944;SDS011;31655;48.972;10.686;2022-07-29T00:19:13;5.07;;;3.67;;
45944;SDS011;31655;48.972;10.686;2022-07-29T00:21:39;6.78;;;3.83;;
45944;SDS011;31655;48.972;10.686;2022-07-29T00:24:06;5.75;;;3.78;;
45944;SDS011;31655;48.972;10.686;2022-07-29T00:26:32;6.60;;;4.15;;
45944;SDS011;31655;48.972;10.686;2022-07-29T00:28:59;10.05;;;3.95;;
45944;SDS011;31655;48.972;10.686;2022-07-29T00:31:27;8.27;;;4.45;;
45944;SDS011;31655;48.972;10.686;2022-07-29T00:33:55;4.50;;;3.80;;
45944;SDS011;31655;48.972;10.686;2022-07-29T00:36:21;5.25;;;4.07;;
45944;SDS011;31655;48.972;10.686;2022-07-29T00:38:48;7.45;;;4.35;;
45944;SDS011;31655;48.972;10.686;2022-07-29T00:41:15;6.88;;;4.10;;
45944;SDS011;31655;48.972;10.686;2022-07-29T00:43:44;9.75;;;4.57;;
45944;SDS011;31655;48.972;10.686;2022-07-29T00:46:11;5.82;;;4.18;;
45944;SDS011;31655;48.972;10.686;2022-07-29T00:48:37;7.53;;;4.13;;
45944;SDS011;31655;48.972;10.686;2022-07-29T00:51:04;4.20;;;3.80;;
45944;SDS011;31655;48.972;10.686;2022-07-29T00:53:32;4.15;;;3.75;;
45944;SDS011;31655;48.972;10.686;2022-07-29T00:55:59;4.28;;;3.88;;
45944;SDS011;31655;48.972;10.686;2022-07-29T00:58:40;5.30;;;3.95;;
45944;SDS011;31655;48.972;10.686;2022-07-29T01:01:06;7.32;;;4.53;;
45944;SDS011;31655;48.972;10.686;2022-07-29T01:03:31;5.18;;;4.00;;
45944;SDS011;31655;48.972;10.686;2022-07-29T01:05:57;5.60;;;4.18;;
45944;SDS011;31655;48.972;10.686;2022-07-29T01:08:24;5.88;;;3.88;;
45944;SDS011;31655;48.972;10.686;2022-07-29T01:10:50;6.40;;;3.63;;
45944;SDS011;31655;48.972;10.686;2022-07-29T01:13:16;5.45;;;4.03;;
45944;SDS011;31655;48.972;10.686;2022-07-29T01:15:44;6.03;;;3.97;;
45944;SDS011;31655;48.972;10.686;2022-07-29T01:34:23;5.32;;;4.20;;
45944;SDS011;31655;48.972;10.686;2022-07-29T01:36:56;6.68;;;4.57;;
45944;SDS011;31655;48.972;10.686;2022-07-29T01:39:33;4.25;;;3.65;;
45944;SDS011;31655;48.972;10.686;2022-07-29T01:42:05;10.68;;;4.88;;
45944;SDS011;31655;48.972;10.686;2022-07-29T01:44:52;8.98;;;5.50;;
45944;SDS011;31655;48.972;10.686;2022-07-29T01:47:25;7.82;;;4.70;;
45944;SDS011;31655;48.972;10.686;2022-07-29T01:49:56;5.30;;;4.75;;
45944;SDS011;31655;48.972;10.686;2022-07-29T01:52:31;6.68;;;4.97;;
45944;SDS011;31655;48.972;10.686;2022-07-29T01:55:03;7.97;;;4.43;;
45944;SDS011;31655;48.972;10.686;2022-07-29T01:57:34;5.93;;;4.00;;
45944;SDS011;31655;48.972;10.686;2022-07-29T02:00:03;4.50;;;3.97;;
45944;SDS011;31655;48.972;10.686;2022-07-29T02:02:30;10.50;;;4.07;;
45944;SDS011;31655;48.972;10.686;2022-07-29T02:04:58;6.57;;;4.68;;
45944;SDS011;31655;48.972;10.686;2022-07-29T02:07:28;5.53;;;4.57;;
45944;SDS011;31655;48.972;10.686;2022-07-29T02:09:56;4.95;;;4.53;;
45944;SDS011;31655;48.972;10.686;2022-07-29T02:12:25;5.68;;;4.10;;
45944;SDS011;31655;48.972;10.686;2022-07-29T02:14:54;8.23;;;4.43;;
45944;SDS011;31655;48.972;10.686;2022-07-29T02:17:22;6.63;;;4.72;;
45944;SDS011;31655;48.972;10.686;2022-07-29T02:19:51;5.85;;;4.43;;
45944;SDS011;31655;48.972;10.686;2022-07-29T02:22:20;7.68;;;4.90;;
45944;SDS011;31655;48.972;10.686;2022-07-29T02:24:47;8.75;;;5.07;;
45944;SDS011;31655;48.972;10.686;2022-07-29T02:27:15;8.10;;;5.18;;
45944;SDS011;31655;48.972;10.686;2022-07-29T02:29:43;9.90;;;5.03;;
45944;SDS011;31655;48.972;10.686;2022-07-29T02:32:11;6.47;;;4.82;;
45944;SDS011;31655;48.972;10.686;2022-07-29T02:34:40;8.15;;;5.10;;
45944;SDS011;31655;48.972;10.686;2022-07-29T02:37:08;6.82;;;4.65;;
45944;SDS011;31655;48.972;10.686;2022-07-29T02:39:36;5.45;;;4.35;;
45944;SDS011;31655;48.972;10.686;2022-07-29T02:42:05;7.68;;;4.65;;
45944;SDS011;31655;48.972;10.686;2022-07-29T02:44:33;5.20;;;4.70;;
45944;SDS011;31655;48.972;10.686;2022-07-29T02:47:10;13.00;;;5.20;;
45944;SDS011;31655;48.972;10.686;2022-07-29T02:57:42;6.72;;;4.88;;
45944;SDS011;31655;48.972;10.686;2022-07-29T03:00:11;17.17;;;10.93;;
45944;SDS011;31655;48.972;10.686;2022-07-29T03:02:38;13.20;;;9.85;;
45944;SDS011;31655;48.972;10.686;2022-07-29T03:05:08;24.27;;;14.35;;
45944;SDS011;31655;48.972;10.686;2022-07-29T03:07:39;6.45;;;5.30;;
45944;SDS011;31655;48.972;10.686;2022-07-29T03:10:08;10.43;;;6.05;;
45944;SDS011;31655;48.972;10.686;2022-07-29T03:12:34;7.65;;;4.78;;
45944;SDS011;31655;48.972;10.686;2022-07-29T03:15:00;7.28;;;4.55;;
45944;SDS011;31655;48.972;10.686;2022-07-29T03:17:27;8.35;;;4.97;;
45944;SDS011;31655;48.972;10.686;2022-07-29T03:19:53;9.85;;;5.60;;
45944;SDS011;31655;48.972;10.686;2022-07-29T03:22:19;6.28;;;4.55;;
45944;SDS011;31655;48.972;10.686;2022-07-29T03:24:45;6.03;;;4.40;;
45944;SDS011;31655;48.972;10.686;2022-07-29T03:27:11;6.95;;;4.65;;
45944;SDS011;31655;48.972;10.686;2022-07-29T03:29:36;6.60;;;5.78;;
45944;SDS011;31655;48.972;10.686;2022-07-29T03:32:03;13.85;;;5.22;;
45944;SDS011;31655;48.972;10.686;2022-07-29T03:34:30;11.02;;;4.85;;
45944;SDS011;31655;48.972;10.686;2022-07-29T03:36:55;8.15;;;4.63;;
45944;SDS011;31655;48.972;10.686;2022-07-29T03:39:21;17.75;;;9.13;;
45944;SDS011;31655;48.972;10.686;2022-07-29T03:41:52;6.30;;;5.32;;
45944;SDS011;31655;48.972;10.686;2022-07-29T03:44:20;6.43;;;4.65;;
45944;SDS011;31655;48.972;10.686;2022-07-29T03:46:47;4.38;;;3.97;;
45944;SDS011;31655;48.972;10.686;2022-07-29T03:49:15;6.70;;;4.30;;
45944;SDS011;31655;48.972;10.686;2022-07-29T03:51:43;6.38;;;4.55;;
45944;SDS011;31655;48.972;10.686;2022-07-29T03:54:09;4.72;;;3.83;;
45944;SDS011;31655;48.972;10.686;2022-07-29T03:56:38;5.35;;;4.20;;
45944;SDS011;31655;48.972;10.686;2022-07-29T03:59:07;6.82;;;3.92;;
45944;SDS011;31655;48.972;10.686;2022-07-29T04:01:34;5.50;;;4.35;;
45944;SDS011;31655;48.972;10.686;2022-07-29T04:04:01;4.75;;;4.35;;
45944;SDS011;31655;48.972;10.686;2022-07-29T04:06:27;4.85;;;3.85;;
45944;SDS011;31655;48.972;10.686;2022-07-29T04:08:52;6.35;;;4.93;;
45944;SDS011;31655;48.972;10.686;2022-07-29T04:11:18;5.95;;;4.93;;
45944;SDS011;31655;48.972;10.686;2022-07-29T04:13:44;11.55;;;6.13;;
45944;SDS011;31655;48.972;10.686;2022-07-29T04:16:09;7.90;;;4.70;;
45944;SDS011;31655;48.972;10.686;2022-07-29T04:18:35;4.88;;;4.13;;
45944;SDS011;31655;48.972;10.686;2022-07-29T04:21:00;5.13;;;3.75;;
45944;SDS011;31655;48.972;10.686;2022-07-29T04:23:26;7.13;;;5.20;;
45944;SDS011;31655;48.972;10.686;2022-07-29T04:25:57;7.15;;;4.72;;
45944;SDS011;31655;48.972;10.686;2022-07-29T04:28:22;5.38;;;4.20;;
45944;SDS011;31655;48.972;10.686;2022-07-29T04:30:48;7.93;;;4.47;;
45944;SDS011;31655;48.972;10.686;2022-07-29T04:33:14;5.40;;;4.05;;
45944;SDS011;31655;48.972;10.686;2022-07-29T04:35:39;4.10;;;3.63;;
45944;SDS011;31655;48.972;10.686;2022-07-29T04:38:05;7.43;;;4.38;;
45944;SDS011;31655;48.972;10.686;2022-07-29T04:40:31;9.13;;;6.00;;
45944;SDS011;31655;48.972;10.686;2022-07-29T04:42:58;4.70;;;3.75;;
45944;SDS011;31655;48.972;10.686;2022-07-29T04:45:24;7.03;;;3.80;;
45944;SDS011;31655;48.972;10.686;2022-07-29T04:47:50;4.45;;;4.03;;
45944;SDS011;31655;48.972;10.686;2022-07-29T04:50:16;11.07;;;6.32;;
45944;SDS011;31655;48.972;10.686;2022-07-29T04:52:41;4.97;;;4.20;;
45944;SDS011;31655;48.972;10.686;2022-07-29T04:55:07;5.75;;;4.03;;
45944;SDS011;31655;48.972;10.686;2022-07-29T04:57:33;5.55;;;4.05;;
45944;SDS011;31655;48.972;10.686;2022-07-29T04:59:59;4.53;;;3.72;;
45944;SDS011;31655;48.972;10.686;2022-07-29T05:02:25;6.75;;;3.72;;
45944;SDS011;31655;48.972;10.686;2022-07-29T05:04:50;3.85;;;2.83;;
45944;SDS011;31655;48.972;10.686;2022-07-29T05:07:16;3.22;;;2.90;;
45944;SDS011;31655;48.972;10.686;2022-07-29T05:09:41;4.70;;;2.55;;
45944;SDS011;31655;48.972;10.686;2022-07-29T05:12:07;3.45;;;2.88;;
45944;SDS011;31655;48.972;10.686;2022-07-29T05:14:33;2.92;;;2.20;;
45944;SDS011;31655;48.972;10.686;2022-07-29T05:16:59;3.65;;;2.70;;
45944;SDS011;31655;48.972;10.686;2022-07-29T05:19:24;3.15;;;2.78;;
45944;SDS011;31655;48.972;10.686;2022-07-29T05:21:50;3.92;;;2.65;;
45944;SDS011;31655;48.972;10.686;2022-07-29T05:24:15;3.65;;;2.28;;
45944;SDS011;31655;48.972;10.686;2022-07-29T05:26:41;8.20;;;4.18;;
45944;SDS011;31655;48.972;10.686;2022-07-29T05:29:07;2.85;;;2.40;;
45944;SDS011;31655;48.972;10.686;2022-07-29T05:31:33;3.53;;;3.10;;
45944;SDS011;31655;48.972;10.686;2022-07-29T05:33:59;2.95;;;2.20;;
45944;SDS011;31655;48.972;10.686;2022-07-29T05:36:25;4.40;;;3.38;;
45944;SDS011;31655;48.972;10.686;2022-07-29T05:38:50;7.88;;;6.13;;
45944;SDS011;31655;48.972;10.686;2022-07-29T05:41:17;2.85;;;2.50;;
45944;SDS011;31655;48.972;10.686;2022-07-29T05:43:46;5.28;;;2.47;;
45944;SDS011;31655;48.972;10.686;2022-07-29T05:46:11;2.30;;;2.10;;
45944;SDS011;31655;48.972;10.686;2022-07-29T05:48:38;2.75;;;2.55;;
45944;SDS011;31655;48.972;10.686;2022-07-29T05:51:04;4.47;;;3.08;;
45944;SDS011;31655;48.972;10.686;2022-07-29T05:53:30;3.38;;;2.60;;
45944;SDS011;31655;48.972;10.686;2022-07-29T05:55:55;2.72;;;2.53;;
45944;SDS011;31655;48.972;10.686;2022-07-29T05:58:21;4.95;;;2.67;;
45944;SDS011;31655;48.972;10.686;2022-07-29T06:00:47;3.80;;;2.30;;
45944;SDS011;31655;48.972;10.686;2022-07-29T06:03:12;4.32;;;3.13;;
45944;SDS011;31655;48.972;10.686;2022-07-29T06:05:38;4.82;;;3.08;;
45944;SDS011;31655;48.972;10.686;2022-07-29T06:08:04;3.10;;;2.50;;
45944;SDS011;31655;48.972;10.686;2022-07-29T06:10:34;3.03;;;2.72;;
45944;SDS011;31655;48.972;10.686;2022-07-29T06:13:00;3.22;;;2.35;;
45944;SDS011;31655;48.972;10.686;2022-07-29T06:15:25;3.63;;;2.53;;
45944;SDS011;31655;48.972;10.686;2022-07-29T06:17:51;2.90;;;2.60;;
45944;SDS011;31655;48.972;10.686;2022-07-29T06:20:17;3.22;;;2.45;;
45944;SDS011;31655;48.972;10.686;2022-07-29T06:22:43;4.53;;;2.55;;
45944;SDS011;31655;48.972;10.686;2022-07-29T06:25:08;3.22;;;2.88;;
45944;SDS011;31655;48.972;10.686;2022-07-29T06:27:34;5.60;;;3.25;;
45944;SDS011;31655;48.972;10.686;2022-07-29T06:30:00;4.40;;;3.15;;
45944;SDS011;31655;48.972;10.686;2022-07-29T06:32:26;5.10;;;3.10;;
45944;SDS011;31655;48.972;10.686;2022-07-29T06:34:52;4.82;;;3.00;;
45944;SDS011;31655;48.972;10.686;2022-07-29T06:37:18;5.72;;;3.00;;
45944;SDS011;31655;48.972;10.686;2022-07-29T06:39:43;4.47;;;2.72;;
45944;SDS011;31655;48.972;10.686;2022-07-29T06:42:09;3.53;;;3.03;;
45944;SDS011;31655;48.972;10.686;2022-07-29T06:44:35;3.80;;;2.85;;
45944;SDS011;31655;48.972;10.686;2022-07-29T06:47:00;4.65;;;3.55;;
45944;SDS011;31655;48.972;10.686;2022-07-29T06:49:26;3.95;;;3.28;;
45944;SDS011;31655;48.972;10.686;2022-07-29T06:51:52;4.05;;;2.88;;
45944;SDS011;31655;48.972;10.686;2022-07-29T06:54:18;4.03;;;3.03;;
45944;SDS011;31655;48.972;10.686;2022-07-29T06:56:44;3.25;;;2.92;;
45944;SDS011;31655;48.972;10.686;2022-07-29T06:59:10;3.38;;;2.85;;
45944;SDS011;31655;48.972;10.686;2022-07-29T07:01:37;4.80;;;2.35;;
45944;SDS011;31655;48.972;10.686;2022-07-29T07:04:04;3.22;;;2.75;;
45944;SDS011;31655;48.972;10.686;2022-07-29T07:06:29;3.40;;;2.35;;
45944;SDS011;31655;48.972;10.686;2022-07-29T07:08:55;3.97;;;2.40;;
45944;SDS011;31655;48.972;10.686;2022-07-29T07:11:21;3.60;;;2.50;;
45944;SDS011;31655;48.972;10.686;2022-07-29T07:13:46;6.43;;;2.65;;
45944;SDS011;31655;48.972;10.686;2022-07-29T07:16:12;4.28;;;2.90;;
45944;SDS011;31655;48.972;10.686;2022-07-29T07:18:37;5.22;;;3.20;;
45944;SDS011;31655;48.972;10.686;2022-07-29T07:21:03;2.97;;;2.67;;
45944;SDS011;31655;48.972;10.686;2022-07-29T07:23:29;3.33;;;2.22;;
45944;SDS011;31655;48.972;10.686;2022-07-29T07:25:55;3.53;;;2.42;;
45944;SDS011;31655;48.972;10.686;2022-07-29T07:28:21;2.75;;;2.55;;
45944;SDS011;31655;48.972;10.686;2022-07-29T07:30:46;5.13;;;2.83;;
45944;SDS011;31655;48.972;10.686;2022-07-29T07:33:12;2.78;;;2.53;;
45944;SDS011;31655;48.972;10.686;2022-07-29T07:35:38;4.78;;;2.97;;
45944;SDS011;31655;48.972;10.686;2022-07-29T07:38:04;3.95;;;2.55;;
45944;SDS011;31655;48.972;10.686;2022-07-29T07:40:31;3.25;;;2.95;;
45944;SDS011;31655;48.972;10.686;2022-07-29T07:42:56;4.32;;;2.45;;
45944;SDS011;31655;48.972;10.686;2022-07-29T07:45:22;4.03;;;2.63;;
45944;SDS011;31655;48.972;10.686;2022-07-29T07:47:48;5.75;;;2.67;;
45944;SDS011;31655;48.972;10.686;2022-07-29T07:50:14;3.08;;;2.08;;
45944;SDS011;31655;48.972;10.686;2022-07-29T07:53:13;4.45;;;3.20;;
45944;SDS011;31655;48.972;10.686;2022-07-29T07:55:32;10.98;;;4.68;;
45944;SDS011;31655;48.972;10.686;2022-07-29T07:57:57;3.92;;;2.40;;
45944;SDS011;31655;48.972;10.686;2022-07-29T08:00:23;3.03;;;2.25;;
45944;SDS011;31655;48.972;10.686;2022-07-29T08:02:49;3.80;;;2.10;;
45944;SDS011;31655;48.972;10.686;2022-07-29T08:05:15;4.00;;;2.15;;
45944;SDS011;31655;48.972;10.686;2022-07-29T08:07:44;4.25;;;2.25;;
45944;SDS011;31655;48.972;10.686;2022-07-29T08:10:10;3.08;;;2.30;;
45944;SDS011;31655;48.972;10.686;2022-07-29T08:12:36;2.78;;;1.90;;
45944;SDS011;31655;48.972;10.686;2022-07-29T08:15:02;3.60;;;2.40;;
45944;SDS011;31655;48.972;10.686;2022-07-29T08:17:28;7.03;;;2.47;;
45944;SDS011;31655;48.972;10.686;2022-07-29T08:19:54;4.05;;;2.20;;
45944;SDS011;31655;48.972;10.686;2022-07-29T08:22:19;3.55;;;2.35;;
45944;SDS011;31655;48.972;10.686;2022-07-29T08:24:45;6.00;;;2.40;;
45944;SDS011;31655;48.972;10.686;2022-07-29T08:27:21;2.15;;;1.95;;
45944;SDS011;31655;48.972;10.686;2022-07-29T08:29:47;5.68;;;2.63;;
45944;SDS011;31655;48.972;10.686;2022-07-29T08:32:12;2.17;;;1.63;;
45944;SDS011;31655;48.972;10.686;2022-07-29T08:34:38;4.55;;;2.20;;
45944;SDS011;31655;48.972;10.686;2022-07-29T08:37:04;3.47;;;2.35;;
45944;SDS011;31655;48.972;10.686;2022-07-29T08:39:29;2.70;;;1.83;;
45944;SDS011;31655;48.972;10.686;2022-07-29T08:41:55;4.80;;;2.20;;
45944;SDS011;31655;48.972;10.686;2022-07-29T08:44:21;2.47;;;2.00;;
45944;SDS011;31655;48.972;10.686;2022-07-29T08:46:46;3.05;;;2.38;;
45944;SDS011;31655;48.972;10.686;2022-07-29T08:49:13;4.50;;;1.95;;
45944;SDS011;31655;48.972;10.686;2022-07-29T08:51:39;1.80;;;1.70;;
45944;SDS011;31655;48.972;10.686;2022-07-29T08:54:06;4.57;;;2.13;;
45944;SDS011;31655;48.972;10.686;2022-07-29T08:56:34;2.17;;;1.90;;
45944;SDS011;31655;48.972;10.686;2022-07-29T08:59:02;2.78;;;2.38;;
45944;SDS011;31655;48.972;10.686;2022-07-29T09:01:30;6.95;;;2.55;;
45944;SDS011;31655;48.972;10.686;2022-07-29T09:03:59;5.03;;;3.08;;
45944;SDS011;31655;48.972;10.686;2022-07-29T09:06:28;2.40;;;2.20;;
45944;SDS011;31655;48.972;10.686;2022-07-29T09:08:58;2.65;;;2.17;;
45944;SDS011;31655;48.972;10.686;2022-07-29T09:11:24;4.10;;;2.40;;
45944;SDS011;31655;48.972;10.686;2022-07-29T09:13:50;4.65;;;2.40;;
45944;SDS011;31655;48.972;10.686;2022-07-29T09:16:16;2.20;;;2.00;;
45944;SDS011;31655;48.972;10.686;2022-07-29T09:18:43;4.95;;;2.50;;
45944;SDS011;31655;48.972;10.686;2022-07-29T09:21:11;2.50;;;2.30;;
45944;SDS011;31655;48.972;10.686;2022-07-29T09:24:01;3.63;;;2.20;;
45944;SDS011;31655;48.972;10.686;2022-07-29T09:26:30;6.70;;;2.45;;
45944;SDS011;31655;48.972;10.686;2022-07-29T09:28:57;3.25;;;2.33;;
45944;SDS011;31655;48.972;10.686;2022-07-29T09:31:34;4.45;;;2.90;;
45944;SDS011;31655;48.972;10.686;2022-07-29T09:34:03;2.92;;;2.22;;
45944;SDS011;31655;48.972;10.686;2022-07-29T09:36:29;3.30;;;2.75;;
45944;SDS011;31655;48.972;10.686;2022-07-29T09:38:58;3.85;;;2.55;;
45944;SDS011;31655;48.972;10.686;2022-07-29T09:41:25;3.00;;;1.95;;
45944;SDS011;31655;48.972;10.686;2022-07-29T09:43:58;3.03;;;2.47;;
45944;SDS011;31655;48.972;10.686;2022-07-29T09:46:25;4.05;;;2.40;;
45944;SDS011;31655;48.972;10.686;2022-07-29T09:49:10;2.33;;;2.15;;
45944;SDS011;31655;48.972;10.686;2022-07-29T09:51:37;2.42;;;2.22;;
45944;SDS011;31655;48.972;10.686;2022-07-29T09:54:20;5.07;;;2.10;;
45944;SDS011;31655;48.972;10.686;2022-07-29T09:56:48;3.03;;;2.38;;
45944;SDS011;31655;48.972;10.686;2022-07-29T09:59:14;2.30;;;2.08;;
45944;SDS011;31655;48.972;10.686;2022-07-29T10:01:40;2.53;;;2.33;;
45944;SDS011;31655;48.972;10.686;2022-07-29T10:04:06;3.65;;;2.22;;
45944;SDS011;31655;48.972;10.686;2022-07-29T10:06:31;2.63;;;2.20;;
45944;SDS011;31655;48.972;10.686;2022-07-29T10:09:10;2.30;;;2.10;;
45944;SDS011;31655;48.972;10.686;2022-07-29T10:11:36;2.78;;;2.10;;
45944;SDS011;31655;48.972;10.686;2022-07-29T10:14:02;2.22;;;1.98;;
45944;SDS011;31655;48.972;10.686;2022-07-29T10:16:29;3.28;;;1.85;;
45944;SDS011;31655;48.972;10.686;2022-07-29T10:18:58;9.18;;;1.98;;
45944;SDS011;31655;48.972;10.686;2022-07-29T10:21:26;2.10;;;1.75;;
45944;SDS011;31655;48.972;10.686;2022-07-29T10:23:52;2.88;;;2.35;;
45944;SDS011;31655;48.972;10.686;2022-07-29T10:26:19;2.33;;;2.13;;
45944;SDS011;31655;48.972;10.686;2022-07-29T10:28:45;2.42;;;2.10;;
45944;SDS011;31655;48.972;10.686;2022-07-29T10:31:13;4.95;;;1.95;;
45944;SDS011;31655;48.972;10.686;2022-07-29T10:33:51;3.10;;;2.30;;
45944;SDS011;31655;48.972;10.686;2022-07-29T10:42:21;2.97;;;1.95;;
45944;SDS011;31655;48.972;10.686;2022-07-29T10:44:50;3.22;;;2.30;;
45944;SDS011;31655;48.972;10.686;2022-07-29T10:50:02;3.40;;;2.40;;
45944;SDS011;31655;48.972;10.686;2022-07-29T10:55:34;4.13;;;2.75;;
45944;SDS011;31655;48.972;10.686;2022-07-29T11:00:46;4.78;;;2.45;;
45944;SDS011;31655;48.972;10.686;2022-07-29T11:06:09;5.85;;;2.90;;
45944;SDS011;31655;48.972;10.686;2022-07-29T11:08:35;4.20;;;2.58;;
45944;SDS011;31655;48.972;10.686;2022-07-29T11:16:11;2.97;;;2.67;;
45944;SDS011;31655;48.972;10.686;2022-07-29T11:21:38;2.28;;;2.13;;
45944;SDS011;31655;48.972;10.686;2022-07-29T11:24:21;5.13;;;1.92;;
45944;SDS011;31655;48.972;10.686;2022-07-29T11:29:38;2.53;;;1.80;;
45944;SDS011;31655;48.972;10.686;2022-07-29T11:32:11;3.17;;;1.90;;
45944;SDS011;31655;48.972;10.686;2022-07-29T11:34:39;1.60;;;1.38;;
45944;SDS011;31655;48.972;10.686;2022-07-29T11:47:31;2.42;;;2.22;;
45944;SDS011;31655;48.972;10.686;2022-07-29T11:49:58;2.35;;;2.10;;
45944;SDS011;31655;48.972;10.686;2022-07-29T11:52:36;6.85;;;2.30;;
45944;SDS011;31655;48.972;10.686;2022-07-29T11:55:11;3.28;;;2.90;;
45944;SDS011;31655;48.972;10.686;2022-07-29T11:57:45;3.00;;;2.80;;
45944;SDS011;31655;48.972;10.686;2022-07-29T12:02:52;4.82;;;2.42;;
45944;SDS011;31655;48.972;10.686;2022-07-29T12:05:18;2.95;;;2.47;;
45944;SDS011;31655;48.972;10.686;2022-07-29T12:07:45;5.07;;;3.05;;
45944;SDS011;31655;48.972;10.686;2022-07-29T12:10:12;10.55;;;5.00;;
45944;SDS011;31655;48.972;10.686;2022-07-29T12:12:38;4.47;;;2.65;;
45944;SDS011;31655;48.972;10.686;2022-07-29T12:15:17;3.22;;;2.97;;
45944;SDS011;31655;48.972;10.686;2022-07-29T12:17:45;4.43;;;3.33;;
45944;SDS011;31655;48.972;10.686;2022-07-29T12:20:12;6.97;;;3.25;;
45944;SDS011;31655;48.972;10.686;2022-07-29T12:22:41;10.27;;;3.42;;
45944;SDS011;31655;48.972;10.686;2022-07-29T12:25:13;4.65;;;4.25;;
45944;SDS011;31655;48.972;10.686;2022-07-29T12:27:42;8.70;;;4.85;;
45944;SDS011;31655;48.972;10.686;2022-07-29T12:30:12;9.77;;;5.60;;
45944;SDS011;31655;48.972;10.686;2022-07-29T12:32:41;12.57;;;7.22;;
45944;SDS011;31655;48.972;10.686;2022-07-29T12:35:15;11.35;;;7.00;;
45944;SDS011;31655;48.972;10.686;2022-07-29T12:37:44;11.50;;;7.55;;
45944;SDS011;31655;48.972;10.686;2022-07-29T12:40:13;11.05;;;7.60;;
45944;SDS011;31655;48.972;10.686;2022-07-29T12:42:41;7.97;;;7.22;;
45944;SDS011;31655;48.972;10.686;2022-07-29T12:45:29;8.70;;;7.23;;
45944;SDS011;31655;48.972;10.686;2022-07-29T12:47:55;9.55;;;7.47;;
45944;SDS011;31655;48.972;10.686;2022-07-29T12:50:21;10.57;;;7.63;;
45944;SDS011;31655;48.972;10.686;2022-07-29T12:52:47;8.13;;;7.38;;
45944;SDS011;31655;48.972;10.686;2022-07-29T12:55:13;8.10;;;7.00;;
45944;SDS011;31655;48.972;10.686;2022-07-29T12:57:49;7.97;;;7.00;;
45944;SDS011;31655;48.972;10.686;2022-07-29T13:00:21;10.57;;;7.32;;
45944;SDS011;31655;48.972;10.686;2022-07-29T13:02:54;12.23;;;7.93;;
45944;SDS011;31655;48.972;10.686;2022-07-29T13:05:23;8.45;;;7.35;;
45944;SDS011;31655;48.972;10.686;2022-07-29T13:07:49;7.97;;;5.28;;
45944;SDS011;31655;48.972;10.686;2022-07-29T13:10:16;9.15;;;6.03;;
45944;SDS011;31655;48.972;10.686;2022-07-29T13:15:29;9.60;;;4.28;;
45944;SDS011;31655;48.972;10.686;2022-07-29T13:17:54;6.90;;;5.65;;
45944;SDS011;31655;48.972;10.686;2022-07-29T13:20:23;10.30;;;4.57;;
45944;SDS011;31655;48.972;10.686;2022-07-29T13:22:52;5.72;;;4.45;;
45944;SDS011;31655;48.972;10.686;2022-07-29T13:25:25;7.45;;;4.82;;
45944;SDS011;31655;48.972;10.686;2022-07-29T13:27:50;5.05;;;3.90;;
45944;SDS011;31655;48.972;10.686;2022-07-29T13:30:16;5.05;;;4.60;;
45944;SDS011;31655;48.972;10.686;2022-07-29T13:32:42;7.22;;;4.40;;
45944;SDS011;31655;48.972;10.686;2022-07-29T13:35:07;5.28;;;4.30;;
45944;SDS011;31655;48.972;10.686;2022-07-29T13:37:34;4.93;;;4.53;;
45944;SDS011;31655;48.972;10.686;2022-07-29T13:40:03;8.43;;;4.80;;
45944;SDS011;31655;48.972;10.686;2022-07-29T13:42:30;7.13;;;4.65;;
45944;SDS011;31655;48.972;10.686;2022-07-29T13:44:56;5.25;;;4.35;;
45944;SDS011;31655;48.972;10.686;2022-07-29T13:47:23;7.78;;;4.38;;
45944;SDS011;31655;48.972;10.686;2022-07-29T13:49:49;5.85;;;4.85;;
45944;SDS011;31655;48.972;10.686;2022-07-29T13:52:14;4.75;;;3.53;;
45944;SDS011;31655;48.972;10.686;2022-07-29T13:54:40;5.00;;;3.35;;
45944;SDS011;31655;48.972;10.686;2022-07-29T13:57:06;3.75;;;3.28;;
45944;SDS011;31655;48.972;10.686;2022-07-29T13:59:32;4.15;;;3.50;;
45944;SDS011;31655;48.972;10.686;2022-07-29T14:01:58;4.70;;;3.70;;
45944;SDS011;31655;48.972;10.686;2022-07-29T14:04:24;6.20;;;3.53;;
45944;SDS011;31655;48.972;10.686;2022-07-29T14:06:50;3.67;;;3.22;;
45944;SDS011;31655;48.972;10.686;2022-07-29T14:09:16;4.32;;;3.38;;
45944;SDS011;31655;48.972;10.686;2022-07-29T14:11:42;7.13;;;3.55;;
45944;SDS011;31655;48.972;10.686;2022-07-29T14:14:08;5.53;;;3.90;;
45944;SDS011;31655;48.972;10.686;2022-07-29T14:16:35;4.43;;;3.00;;
45944;SDS011;31655;48.972;10.686;2022-07-29T14:19:00;4.22;;;3.80;;
45944;SDS011;31655;48.972;10.686;2022-07-29T14:21:27;3.80;;;3.20;;
45944;SDS011;31655;48.972;10.686;2022-07-29T14:23:52;6.85;;;3.35;;
45944;SDS011;31655;48.972;10.686;2022-07-29T14:26:19;3.78;;;3.40;;
45944;SDS011;31655;48.972;10.686;2022-07-29T14:28:45;8.43;;;3.63;;
45944;SDS011;31655;48.972;10.686;2022-07-29T14:31:11;3.53;;;3.22;;
45944;SDS011;31655;48.972;10.686;2022-07-29T14:33:36;6.57;;;3.22;;
45944;SDS011;31655;48.972;10.686;2022-07-29T14:36:02;4.13;;;3.47;;
45944;SDS011;31655;48.972;10.686;2022-07-29T14:38:28;9.02;;;3.40;;
45944;SDS011;31655;48.972;10.686;2022-07-29T14:40:53;5.05;;;3.35;;
45944;SDS011;31655;48.972;10.686;2022-07-29T14:43:19;3.17;;;2.88;;
45944;SDS011;31655;48.972;10.686;2022-07-29T14:45:45;3.85;;;3.38;;
45944;SDS011;31655;48.972;10.686;2022-07-29T14:48:10;5.53;;;3.55;;
45944;SDS011;31655;48.972;10.686;2022-07-29T14:50:36;6.50;;;3.72;;
45944;SDS011;31655;48.972;10.686;2022-07-29T14:53:02;3.63;;;2.97;;
45944;SDS011;31655;48.972;10.686;2022-07-29T14:55:28;3.55;;;3.25;;
45944;SDS011;31655;48.972;10.686;2022-07-29T14:57:53;6.63;;;3.58;;
45944;SDS011;31655;48.972;10.686;2022-07-29T15:00:19;3.72;;;3.30;;
45944;SDS011;31655;48.972;10.686;2022-07-29T15:02:45;5.07;;;3.25;;
45944;SDS011;31655;48.972;10.686;2022-07-29T15:05:12;4.45;;;3.40;;
45944;SDS011;31655;48.972;10.686;2022-07-29T15:07:37;4.35;;;2.85;;
45944;SDS011;31655;48.972;10.686;2022-07-29T15:10:03;3.95;;;2.90;;
45944;SDS011;31655;48.972;10.686;2022-07-29T15:12:30;2.75;;;2.55;;
45944;SDS011;31655;48.972;10.686;2022-07-29T15:14:56;2.97;;;2.65;;
45944;SDS011;31655;48.972;10.686;2022-07-29T15:17:22;2.85;;;2.65;;
45944;SDS011;31655;48.972;10.686;2022-07-29T15:19:47;4.93;;;2.90;;
45944;SDS011;31655;48.972;10.686;2022-07-29T15:22:13;3.35;;;2.67;;
45944;SDS011;31655;48.972;10.686;2022-07-29T15:24:39;4.35;;;3.22;;
45944;SDS011;31655;48.972;10.686;2022-07-29T15:27:04;4.57;;;3.20;;
45944;SDS011;31655;48.972;10.686;2022-07-29T15:29:30;3.05;;;2.75;;
45944;SDS011;31655;48.972;10.686;2022-07-29T15:31:56;3.33;;;3.05;;
45944;SDS011;31655;48.972;10.686;2022-07-29T15:34:21;5.00;;;3.20;;
45944;SDS011;31655;48.972;10.686;2022-07-29T15:36:48;3.83;;;2.60;;
45944;SDS011;31655;48.972;10.686;2022-07-29T15:39:18;4.10;;;2.67;;
45944;SDS011;31655;48.972;10.686;2022-07-29T15:41:45;4.45;;;3.78;;
45944;SDS011;31655;48.972;10.686;2022-07-29T15:44:10;5.38;;;3.53;;